Time;durP1;ratioP1;P1;durP2;ratioP2;P2;SDS_P1;SDS_P2;PMS_P1;PMS_P2;Temp;Humidity;BMP_temperature;BMP_pressure;BME280_temperature;BME280_humidity;BME280_pressure;Samples;Min_cycle;Max_cycle;Signal;HPM_P1;HPM_P2
2022/11/20 00:01:31;;;;;;;4.03;1.67;;;7.10;99.90;;;;;;4974113;28;20203;-49
2022/11/20 00:03:59;;;;;;;2.00;1.87;;;7.10;99.90;;;;;;4981479;28;20214;-50
2022/11/20 00:06:27;;;;;;;2.73;1.80;;;7.00;99.90;;;;;;4986570;28;20221;-50
2022/11/20 00:08:56;;;;;;;2.33;2.10;;;7.00;99.90;;;;;;4990782;28;20661;-50
2022/11/20 00:11:27;;;;;;;3.53;1.70;;;7.00;99.90;;;;;;4991644;28;20273;-50
2022/11/20 00:13:57;;;;;;;1.50;1.23;;;7.00;99.90;;;;;;4983762;28;20198;-50
2022/11/20 00:16:26;;;;;;;1.77;1.63;;;7.00;99.90;;;;;;4991779;28;20716;-50
2022/11/20 00:18:54;;;;;;;1.27;1.17;;;6.90;99.90;;;;;;4988891;28;20237;-50
2022/11/20 00:21:23;;;;;;;3.10;2.67;;;6.90;99.90;;;;;;4984329;28;20205;-49
2022/11/20 00:23:50;;;;;;;2.83;2.53;;;7.00;99.90;;;;;;4973926;28;20207;-50
2022/11/20 00:26:19;;;;;;;3.00;2.73;;;7.00;99.90;;;;;;4979235;28;20279;-51
2022/11/20 00:28:52;;;;;;;5.67;4.83;;;7.00;99.90;;;;;;4990914;28;20200;-50
2022/11/20 00:31:20;;;;;;;6.20;3.83;;;6.90;99.90;;;;;;4983534;28;20213;-50
2022/11/20 00:33:48;;;;;;;4.00;3.70;;;7.10;99.90;;;;;;4980791;28;20258;-49
2022/11/20 00:36:17;;;;;;;3.43;3.13;;;7.20;99.90;;;;;;4981859;28;20224;-49
2022/11/20 00:38:44;;;;;;;5.47;4.97;;;7.10;99.90;;;;;;4983466;28;20227;-50
2022/11/20 00:41:12;;;;;;;5.87;5.20;;;7.10;99.90;;;;;;4992034;28;20260;-49
2022/11/20 00:43:39;;;;;;;5.23;4.83;;;7.00;99.90;;;;;;4988931;28;20674;-50
2022/11/20 00:46:10;;;;;;;2.30;2.20;;;7.00;99.90;;;;;;4980379;28;20257;-50
2022/11/20 00:48:37;;;;;;;3.10;2.80;;;7.00;99.90;;;;;;4974268;28;20268;-50
2022/11/20 00:51:05;;;;;;;4.23;2.10;;;7.00;99.90;;;;;;4985280;28;20200;-51
2022/11/20 00:53:32;;;;;;;1.73;1.63;;;7.00;99.90;;;;;;4979373;28;20258;-50
2022/11/20 00:56:01;;;;;;;7.07;5.67;;;7.00;99.90;;;;;;4991392;28;20283;-50
2022/11/20 00:58:31;;;;;;;4.93;4.43;;;7.00;99.90;;;;;;4982074;28;20755;-50
2022/11/20 01:01:01;;;;;;;6.57;2.77;;;6.90;99.90;;;;;;4993707;28;20737;-50
2022/11/20 01:03:33;;;;;;;1.93;1.73;;;6.90;99.90;;;;;;4991668;28;20252;-51
2022/11/20 01:06:02;;;;;;;3.20;2.80;;;6.90;99.90;;;;;;4990258;28;20232;-50
2022/11/20 01:08:32;;;;;;;3.97;3.27;;;7.00;99.90;;;;;;4982834;28;20675;-50
2022/11/20 01:11:03;;;;;;;5.10;2.20;;;7.00;99.90;;;;;;4983101;28;20202;-50
2022/11/20 01:13:41;;;;;;;2.03;1.93;;;7.10;99.90;;;;;;4989762;28;20204;-50
2022/11/20 01:16:09;;;;;;;4.43;3.00;;;7.10;99.90;;;;;;4978872;28;20239;-52
2022/11/20 01:18:40;;;;;;;2.90;2.70;;;7.00;99.90;;;;;;4984250;28;20223;-51
2022/11/20 01:21:11;;;;;;;3.17;2.47;;;6.90;99.90;;;;;;4990767;28;20198;-51
2022/11/20 01:23:40;;;;;;;2.30;2.10;;;7.00;99.90;;;;;;4983732;28;20206;-50
2022/11/20 01:26:09;;;;;;;3.03;2.17;;;7.00;99.90;;;;;;4991701;28;20201;-49
2022/11/20 01:28:36;;;;;;;2.13;2.03;;;7.00;99.90;;;;;;4990568;28;20662;-50
2022/11/20 01:31:12;;;;;;;2.43;1.93;;;6.90;99.90;;;;;;4980045;28;20611;-50
2022/11/20 01:33:40;;;;;;;1.77;1.77;;;6.90;99.90;;;;;;4986959;28;20220;-50
2022/11/20 01:36:09;;;;;;;4.33;2.20;;;6.80;99.90;;;;;;4980788;28;20573;-51
2022/11/20 01:38:36;;;;;;;4.77;1.93;;;6.80;99.90;;;;;;4986009;28;20230;-51
2022/11/20 01:41:03;;;;;;;4.83;2.70;;;6.80;99.90;;;;;;4981459;28;20210;-50
2022/11/20 01:43:29;;;;;;;2.63;2.43;;;6.90;99.90;;;;;;4988344;28;20267;-51
2022/11/20 01:46:18;;;;;;;4.60;2.17;;;6.90;99.90;;;;;;4982801;28;20200;-50
2022/11/20 01:48:54;;;;;;;2.63;2.43;;;6.90;99.90;;;;;;4984994;28;20246;-50
2022/11/20 01:51:29;;;;;;;2.97;2.77;;;6.90;99.90;;;;;;4983089;28;20205;-51
2022/11/20 01:53:58;;;;;;;3.50;3.13;;;6.90;99.90;;;;;;4975139;28;20335;-51
2022/11/20 01:56:26;;;;;;;3.40;3.10;;;6.90;99.90;;;;;;4978307;28;20233;-51
2022/11/20 01:58:57;;;;;;;4.70;3.07;;;6.90;99.90;;;;;;4982746;28;20636;-48
2022/11/20 02:01:24;;;;;;;3.57;2.87;;;6.90;99.90;;;;;;4988549;28;20210;-48
2022/11/20 02:03:53;;;;;;;4.00;2.63;;;6.90;99.90;;;;;;4985373;28;20209;-54
2022/11/20 02:06:24;;;;;;;4.13;3.33;;;6.90;99.90;;;;;;4989586;28;20230;-48
2022/11/20 02:08:52;;;;;;;4.97;3.00;;;6.90;99.90;;;;;;4986333;28;20199;-48
2022/11/20 02:11:19;;;;;;;2.50;2.40;;;6.80;99.90;;;;;;4979908;28;20266;-48
2022/11/20 02:13:46;;;;;;;3.43;3.13;;;6.80;99.90;;;;;;4971576;28;20245;-48
2022/11/20 02:16:20;;;;;;;5.23;4.40;;;6.80;99.90;;;;;;4981033;28;20225;-47
2022/11/20 02:18:47;;;;;;;4.73;3.50;;;6.80;99.90;;;;;;4983490;28;20802;-47
2022/11/20 02:21:25;;;;;;;4.00;3.70;;;6.70;99.90;;;;;;4983599;28;20546;-48
2022/11/20 02:24:09;;;;;;;5.20;3.67;;;6.70;99.90;;;;;;4993151;28;20208;-52
2022/11/20 02:26:42;;;;;;;4.10;3.20;;;6.70;99.90;;;;;;4995189;28;20308;-48
2022/11/20 02:29:09;;;;;;;3.30;3.10;;;6.70;99.90;;;;;;4989135;28;20268;-48
2022/11/20 02:31:40;;;;;;;4.60;3.70;;;6.70;99.90;;;;;;4982557;28;20205;-47
2022/11/20 02:34:07;;;;;;;3.23;2.73;;;6.70;99.90;;;;;;4990561;28;20202;-47
2022/11/20 02:36:37;;;;;;;2.87;2.67;;;6.70;99.90;;;;;;4978762;28;20278;-48
2022/11/20 02:39:06;;;;;;;3.90;3.00;;;6.70;99.90;;;;;;4991985;28;20225;-48
2022/11/20 02:41:35;;;;;;;5.37;2.63;;;7.10;99.90;;;;;;4986828;28;20668;-47
2022/11/20 02:44:02;;;;;;;6.53;4.23;;;7.00;99.90;;;;;;4974940;28;20205;-47
2022/11/20 02:46:29;;;;;;;4.13;3.40;;;6.90;99.90;;;;;;4975191;28;20609;-47
2022/11/20 02:48:57;;;;;;;4.87;4.47;;;6.90;99.90;;;;;;4990576;28;20684;-48
2022/11/20 02:51:24;;;;;;;5.60;3.53;;;6.80;99.90;;;;;;4998416;28;20560;-48
2022/11/20 02:53:51;;;;;;;3.97;3.60;;;6.80;99.90;;;;;;4985572;28;20707;-47
2022/11/20 02:56:20;;;;;;;5.53;3.50;;;6.70;99.90;;;;;;4986289;28;20284;-47
2022/11/20 02:58:47;;;;;;;3.37;3.07;;;6.70;99.90;;;;;;4993705;28;20492;-48
2022/11/20 03:01:14;;;;;;;7.07;3.43;;;6.60;99.90;;;;;;4981540;28;20206;-48
2022/11/20 03:03:41;;;;;;;3.97;3.63;;;6.60;99.90;;;;;;4981902;28;20209;-48
2022/11/20 03:06:08;;;;;;;3.87;3.03;;;6.60;99.90;;;;;;4978071;28;20213;-48
2022/11/20 03:08:36;;;;;;;4.30;3.53;;;6.60;99.90;;;;;;4991005;28;20344;-48
2022/11/20 03:11:04;;;;;;;4.93;3.90;;;6.60;99.90;;;;;;4982437;28;20202;-48
2022/11/20 03:13:33;;;;;;;8.57;3.80;;;6.50;99.90;;;;;;4986502;28;20231;-48
2022/11/20 03:16:07;;;;;;;4.73;3.33;;;6.50;99.90;;;;;;4987492;28;20256;-47
2022/11/20 03:18:34;;;;;;;3.20;2.93;;;6.50;99.90;;;;;;4979060;28;20321;-47
2022/11/20 03:21:01;;;;;;;6.57;2.70;;;6.60;99.90;;;;;;4990932;28;20690;-48
2022/11/20 03:23:31;;;;;;;3.10;2.87;;;6.50;99.90;;;;;;4981729;28;20202;-48
2022/11/20 03:26:07;;;;;;;2.50;2.40;;;6.50;99.90;;;;;;4976740;28;20210;-49
2022/11/20 03:28:35;;;;;;;2.87;2.67;;;6.50;99.90;;;;;;4987048;28;20195;-48
2022/11/20 03:31:07;;;;;;;2.27;2.17;;;6.50;99.90;;;;;;4988314;28;20210;-48
2022/11/20 03:33:34;;;;;;;2.73;2.53;;;6.50;99.90;;;;;;4985237;28;20293;-47
2022/11/20 03:36:02;;;;;;;2.77;2.53;;;6.60;99.90;;;;;;4974029;28;20257;-47
2022/11/20 03:38:30;;;;;;;5.87;2.77;;;6.60;99.90;;;;;;4985195;28;20240;-48
2022/11/20 03:41:00;;;;;;;3.10;2.57;;;6.70;99.90;;;;;;4987739;28;20617;-48
2022/11/20 03:43:27;;;;;;;2.97;2.77;;;6.60;99.90;;;;;;4983972;28;20202;-48
2022/11/20 03:45:56;;;;;;;3.10;2.90;;;6.60;99.90;;;;;;4983619;28;20753;-47
2022/11/20 03:48:23;;;;;;;2.60;2.40;;;6.50;99.90;;;;;;4979571;28;20624;-48
2022/11/20 03:50:50;;;;;;;3.17;3.03;;;6.50;99.90;;;;;;4981873;28;20204;-48
2022/11/20 03:53:17;;;;;;;3.40;3.10;;;6.50;99.90;;;;;;4978659;28;20208;-48
2022/11/20 03:55:44;;;;;;;3.43;3.20;;;6.60;99.90;;;;;;4983845;28;20683;-48
2022/11/20 03:58:13;;;;;;;4.20;3.37;;;6.60;99.90;;;;;;4980172;28;20296;-48
2022/11/20 04:00:40;;;;;;;3.63;3.33;;;6.60;99.90;;;;;;4991632;28;20213;-48
2022/11/20 04:03:08;;;;;;;4.57;3.07;;;6.60;99.90;;;;;;4983952;28;20707;-48
2022/11/20 04:05:35;;;;;;;4.40;3.17;;;6.60;99.90;;;;;;4991669;28;20210;-47
2022/11/20 04:08:02;;;;;;;3.40;3.20;;;6.60;99.90;;;;;;4992358;28;20248;-48
2022/11/20 04:10:29;;;;;;;3.17;2.97;;;6.60;99.90;;;;;;4980675;28;20218;-48
2022/11/20 04:12:56;;;;;;;2.93;2.33;;;6.60;99.90;;;;;;4982564;28;20213;-48
2022/11/20 04:15:23;;;;;;;2.00;1.90;;;6.60;99.90;;;;;;4977598;28;20562;-48
2022/11/20 04:17:50;;;;;;;2.70;2.50;;;6.60;99.90;;;;;;4977233;28;20231;-47
2022/11/20 04:20:18;;;;;;;2.47;2.27;;;6.50;99.90;;;;;;4985599;28;20200;-48
2022/11/20 04:22:46;;;;;;;2.80;2.60;;;6.60;99.90;;;;;;4983204;28;20563;-47
2022/11/20 04:25:13;;;;;;;3.90;2.57;;;6.60;99.90;;;;;;4977849;28;20202;-48
2022/11/20 04:27:40;;;;;;;2.50;2.30;;;6.60;99.90;;;;;;4974520;28;20283;-48
2022/11/20 04:30:08;;;;;;;3.07;2.53;;;6.70;99.90;;;;;;4992607;28;20198;-48
2022/11/20 04:32:35;;;;;;;3.87;2.97;;;6.70;99.90;;;;;;4976576;28;20296;-48
2022/11/20 04:35:02;;;;;;;4.00;3.70;;;6.80;99.90;;;;;;4986591;28;20256;-48
2022/11/20 04:37:30;;;;;;;4.00;2.93;;;6.80;99.90;;;;;;4991628;28;20652;-47
2022/11/20 04:39:57;;;;;;;2.97;2.67;;;6.80;99.90;;;;;;4991960;28;20221;-47
2022/11/20 04:42:30;;;;;;;3.20;3.00;;;6.80;99.90;;;;;;4995933;28;20348;-47
2022/11/20 04:44:58;;;;;;;3.77;3.43;;;6.70;99.90;;;;;;4992619;28;20262;-48
2022/11/20 04:47:25;;;;;;;3.83;2.83;;;6.80;99.90;;;;;;4991634;28;20283;-48
2022/11/20 04:49:52;;;;;;;3.00;2.03;;;6.80;99.90;;;;;;4990916;28;20630;-47
2022/11/20 04:52:19;;;;;;;2.27;1.90;;;6.70;99.90;;;;;;4984220;28;20208;-48
2022/11/20 04:54:47;;;;;;;2.67;2.47;;;6.60;99.90;;;;;;4974131;28;20612;-48
2022/11/20 04:57:16;;;;;;;1.73;1.63;;;6.60;99.90;;;;;;4978558;28;20322;-48
2022/11/20 04:59:44;;;;;;;2.83;2.10;;;6.60;99.90;;;;;;4980127;28;20659;-47
2022/11/20 05:02:11;;;;;;;2.17;1.80;;;6.60;99.90;;;;;;4972251;28;20727;-48
2022/11/20 05:04:38;;;;;;;4.50;2.20;;;6.60;99.90;;;;;;4973003;28;20216;-48
2022/11/20 05:07:05;;;;;;;1.43;1.33;;;6.60;99.90;;;;;;4985593;28;20229;-48
2022/11/20 05:09:32;;;;;;;2.20;2.10;;;6.60;99.90;;;;;;4983040;28;20202;-48
2022/11/20 05:12:01;;;;;;;1.83;1.73;;;6.50;99.90;;;;;;4991559;28;20272;-48
2022/11/20 05:14:28;;;;;;;3.57;1.87;;;6.50;99.90;;;;;;4986831;28;20206;-48
2022/11/20 05:16:55;;;;;;;2.23;1.63;;;6.60;99.90;;;;;;4988786;28;20227;-47
2022/11/20 05:19:25;;;;;;;3.17;1.87;;;6.60;99.90;;;;;;4971976;28;20224;-47
2022/11/20 05:21:52;;;;;;;1.50;1.40;;;6.70;99.90;;;;;;4979476;28;20263;-48
2022/11/20 05:24:19;;;;;;;1.37;1.30;;;6.70;99.90;;;;;;4983645;28;20209;-48
2022/11/20 05:26:46;;;;;;;1.93;1.83;;;6.70;99.90;;;;;;4989683;28;20630;-48
2022/11/20 05:29:15;;;;;;;2.53;1.60;;;6.60;99.90;;;;;;4982953;28;20200;-47
2022/11/20 05:31:42;;;;;;;1.50;1.50;;;6.60;99.90;;;;;;4990867;28;20568;-48
2022/11/20 05:34:09;;;;;;;1.23;1.13;;;6.60;99.90;;;;;;4980812;28;20726;-48
2022/11/20 05:36:36;;;;;;;1.13;1.13;;;6.60;99.90;;;;;;4982580;28;20227;-48
2022/11/20 05:39:03;;;;;;;1.70;1.60;;;6.60;99.90;;;;;;4990746;28;20734;-48
2022/11/20 05:41:30;;;;;;;2.53;1.80;;;6.50;99.90;;;;;;4981300;28;20257;-48
2022/11/20 05:43:58;;;;;;;1.53;1.47;;;6.50;99.90;;;;;;4980133;28;20704;-47
2022/11/20 05:46:27;;;;;;;2.30;2.10;;;6.50;99.90;;;;;;4990482;28;20661;-47
2022/11/20 05:48:54;;;;;;;2.60;2.00;;;6.60;99.90;;;;;;4984684;28;20205;-48
2022/11/20 05:51:21;;;;;;;2.33;2.13;;;6.60;99.90;;;;;;4987371;28;20255;-47
2022/11/20 05:53:48;;;;;;;2.43;2.20;;;6.60;99.90;;;;;;4993100;28;20206;-48
2022/11/20 05:56:19;;;;;;;3.67;3.33;;;6.60;99.90;;;;;;4953382;28;1099894;-48
2022/11/20 05:58:46;;;;;;;5.80;3.37;;;6.60;99.90;;;;;;4985944;28;20251;-48
2022/11/20 06:01:15;;;;;;;4.77;3.53;;;6.60;99.90;;;;;;4975870;28;20257;-48
2022/11/20 06:03:45;;;;;;;2.20;1.63;;;6.60;99.90;;;;;;4975125;28;20619;-48
2022/11/20 06:06:13;;;;;;;2.60;2.40;;;6.70;99.90;;;;;;4994946;28;20201;-48
2022/11/20 06:08:40;;;;;;;2.57;2.37;;;6.70;99.90;;;;;;4978853;28;20202;-48
2022/11/20 06:11:09;;;;;;;2.90;2.23;;;6.60;99.90;;;;;;4985984;28;20272;-48
2022/11/20 06:13:36;;;;;;;2.57;2.37;;;6.60;99.90;;;;;;4987270;28;20268;-47
2022/11/20 06:16:03;;;;;;;2.00;1.90;;;6.50;99.90;;;;;;4981360;28;20202;-47
2022/11/20 06:18:30;;;;;;;2.63;2.43;;;6.50;99.90;;;;;;4992144;28;20221;-48
2022/11/20 06:21:03;;;;;;;3.73;3.27;;;6.50;99.90;;;;;;4994999;28;20282;-47
2022/11/20 06:23:31;;;;;;;3.10;2.83;;;6.40;99.90;;;;;;4994176;28;20245;-48
2022/11/20 06:26:01;;;;;;;3.10;2.77;;;6.40;99.90;;;;;;4993031;28;20341;-48
2022/11/20 06:28:28;;;;;;;3.03;2.53;;;6.40;99.90;;;;;;4987474;28;20235;-47
2022/11/20 06:30:55;;;;;;;2.10;2.00;;;6.40;99.90;;;;;;4987923;28;20236;-47
2022/11/20 06:33:22;;;;;;;3.23;2.93;;;6.40;99.90;;;;;;4998778;28;20216;-48
2022/11/20 06:35:49;;;;;;;2.43;2.33;;;6.50;99.90;;;;;;4990840;28;20268;-49
2022/11/20 06:38:18;;;;;;;2.67;2.47;;;6.40;99.90;;;;;;4985367;28;20273;-49
2022/11/20 06:40:45;;;;;;;2.70;2.30;;;6.40;99.90;;;;;;4993662;28;20247;-49
2022/11/20 06:43:12;;;;;;;2.53;2.33;;;6.40;99.90;;;;;;4993685;28;20201;-51
2022/11/20 06:45:39;;;;;;;1.80;1.80;;;6.40;99.90;;;;;;4993439;28;20210;-48
2022/11/20 06:48:06;;;;;;;3.37;1.97;;;6.40;99.90;;;;;;4981714;28;20290;-50
2022/11/20 06:50:33;;;;;;;2.47;2.27;;;6.40;99.90;;;;;;4983949;28;20202;-49
2022/11/20 06:53:03;;;;;;;10.70;6.87;;;6.40;99.90;;;;;;4985602;28;20205;-51
2022/11/20 06:55:32;;;;;;;3.07;2.87;;;6.30;99.90;;;;;;4992796;28;20277;-49
2022/11/20 06:57:59;;;;;;;1.87;1.77;;;6.30;99.90;;;;;;4988574;28;20696;-49
2022/11/20 07:00:26;;;;;;;1.60;1.50;;;6.30;99.90;;;;;;4992631;28;20354;-49
2022/11/20 07:02:54;;;;;;;2.10;2.00;;;6.40;99.90;;;;;;4974320;28;20257;-49
2022/11/20 07:05:21;;;;;;;3.27;2.30;;;6.50;99.90;;;;;;4990414;28;20215;-49
2022/11/20 07:07:48;;;;;;;2.03;1.77;;;6.60;99.90;;;;;;4991005;28;20229;-49
2022/11/20 07:10:16;;;;;;;4.70;2.17;;;6.50;99.90;;;;;;4984504;28;20555;-51
2022/11/20 07:12:51;;;;;;;2.83;2.60;;;6.50;99.90;;;;;;4987533;28;20201;-49
2022/11/20 07:15:19;;;;;;;3.33;2.87;;;6.40;99.90;;;;;;4979763;28;20211;-49
2022/11/20 07:17:46;;;;;;;7.30;3.57;;;6.40;99.90;;;;;;4988300;28;20276;-49
2022/11/20 07:20:13;;;;;;;5.23;3.63;;;6.50;99.90;;;;;;4991804;28;20280;-49
2022/11/20 07:22:41;;;;;;;7.27;3.57;;;6.50;99.90;;;;;;4987463;28;20260;-50
2022/11/20 07:25:09;;;;;;;2.50;2.30;;;6.50;99.90;;;;;;4978003;28;20260;-49
2022/11/20 07:27:36;;;;;;;4.40;3.00;;;6.50;99.90;;;;;;4988772;28;20607;-50
2022/11/20 07:30:06;;;;;;;3.23;2.67;;;6.50;99.90;;;;;;4991315;28;20263;-49
2022/11/20 07:32:33;;;;;;;3.27;2.20;;;6.50;99.90;;;;;;4992438;28;20227;-50
2022/11/20 07:35:00;;;;;;;2.93;2.73;;;6.50;99.90;;;;;;4980306;28;20619;-48
2022/11/20 07:37:27;;;;;;;3.80;3.50;;;6.60;99.90;;;;;;4980438;28;20229;-49
2022/11/20 07:39:54;;;;;;;2.93;2.73;;;6.60;99.90;;;;;;4976049;28;20223;-48
2022/11/20 07:42:21;;;;;;;3.47;3.10;;;6.60;99.90;;;;;;4991515;28;20206;-49
2022/11/20 07:44:48;;;;;;;2.90;2.57;;;6.70;99.90;;;;;;4974494;28;20243;-50
2022/11/20 07:47:16;;;;;;;2.53;2.30;;;6.70;99.90;;;;;;4986545;28;20234;-50
2022/11/20 07:49:43;;;;;;;2.60;2.20;;;6.80;99.90;;;;;;4985233;28;20197;-50
2022/11/20 07:52:10;;;;;;;2.57;2.37;;;6.80;99.90;;;;;;4987493;28;20254;-51
2022/11/20 07:54:37;;;;;;;2.60;2.00;;;6.90;99.90;;;;;;4988162;28;20200;-51
2022/11/20 07:57:05;;;;;;;2.27;2.07;;;7.00;99.90;;;;;;4991336;28;20279;-48
2022/11/20 07:59:31;;;;;;;2.57;2.17;;;7.10;99.90;;;;;;4987570;28;20635;-50
2022/11/20 08:01:58;;;;;;;2.40;2.20;;;7.20;99.90;;;;;;4987562;28;20273;-48
2022/11/20 08:04:30;;;;;;;2.07;1.97;;;7.10;99.90;;;;;;4990783;28;20260;-51
2022/11/20 08:06:57;;;;;;;1.57;1.47;;;7.10;99.90;;;;;;4982377;28;20226;-49
2022/11/20 08:09:28;;;;;;;2.93;2.07;;;7.10;99.90;;;;;;4977930;28;20591;-50
2022/11/20 08:14:40;;;;;;;2.27;2.17;;;7.10;99.90;;;;;;4984235;28;20251;-50
2022/11/20 08:17:07;;;;;;;5.47;4.97;;;7.10;99.90;;;;;;4976064;28;20721;-49
2022/11/20 08:19:35;;;;;;;3.20;3.00;;;7.20;99.90;;;;;;4978253;28;20698;-50
2022/11/20 08:22:02;;;;;;;4.00;3.70;;;7.30;99.90;;;;;;4984417;28;20202;-48
2022/11/20 08:24:29;;;;;;;3.30;3.10;;;7.40;99.90;;;;;;4980524;28;20209;-49
2022/11/20 08:26:59;;;;;;;3.50;3.30;;;7.40;99.90;;;;;;4977747;28;20624;-50
2022/11/20 08:29:30;;;;;;;3.00;2.90;;;7.50;99.90;;;;;;4982061;28;20916;-50
2022/11/20 08:31:58;;;;;;;2.10;2.00;;;7.50;99.90;;;;;;4992509;28;20202;-49
2022/11/20 08:34:28;;;;;;;2.10;2.00;;;7.50;99.90;;;;;;4991921;28;20210;-49
2022/11/20 08:36:56;;;;;;;2.40;2.30;;;7.60;99.90;;;;;;4992327;28;20222;-48
2022/11/20 08:39:24;;;;;;;2.20;2.07;;;7.70;99.90;;;;;;4992333;28;20233;-49
2022/11/20 08:41:51;;;;;;;2.23;2.13;;;7.80;99.90;;;;;;4984919;28;20626;-50
2022/11/20 08:44:18;;;;;;;6.63;2.57;;;7.80;99.90;;;;;;4988575;28;20205;-50
2022/11/20 08:46:46;;;;;;;2.53;2.10;;;7.80;99.90;;;;;;4986855;28;20218;-50
2022/11/20 08:49:14;;;;;;;2.60;2.40;;;7.70;99.90;;;;;;4980793;28;20233;-50
2022/11/20 08:51:42;;;;;;;2.80;2.60;;;7.60;99.90;;;;;;4985795;28;20205;-50
2022/11/20 08:54:10;;;;;;;3.40;2.63;;;7.50;99.90;;;;;;4987735;28;20635;-49
2022/11/20 08:56:37;;;;;;;4.60;2.53;;;7.40;99.90;;;;;;4988968;28;20228;-50
2022/11/20 08:59:05;;;;;;;2.83;2.63;;;7.30;99.90;;;;;;4986864;28;20577;-50
2022/11/20 09:01:32;;;;;;;3.27;3.07;;;7.30;99.90;;;;;;4985418;28;20285;-49
2022/11/20 09:03:59;;;;;;;3.00;2.80;;;7.30;99.90;;;;;;4982288;28;20583;-50
2022/11/20 09:06:27;;;;;;;3.50;3.20;;;7.30;99.90;;;;;;4986193;28;20587;-49
2022/11/20 09:08:55;;;;;;;3.23;3.03;;;7.60;99.90;;;;;;4982131;28;20619;-53
2022/11/20 09:11:23;;;;;;;3.83;2.90;;;7.90;99.90;;;;;;4982917;28;20283;-48
2022/11/20 09:13:50;;;;;;;2.90;2.70;;;8.20;99.90;;;;;;4986967;28;20332;-48
2022/11/20 09:16:17;;;;;;;3.10;2.90;;;8.60;99.90;;;;;;4980802;28;20274;-49
2022/11/20 09:18:44;;;;;;;3.30;2.30;;;8.80;99.90;;;;;;4984277;28;20218;-48
2022/11/20 09:21:13;;;;;;;2.57;2.37;;;9.20;99.90;;;;;;4985199;28;20289;-50
2022/11/20 09:23:40;;;;;;;2.77;2.57;;;9.50;99.90;;;;;;5038244;23;20653;-49
2022/11/20 09:26:11;;;;;;;2.37;2.27;;;9.70;99.90;;;;;;5017921;28;20200;-49
2022/11/20 09:28:40;;;;;;;2.27;2.03;;;9.80;99.90;;;;;;5027675;28;20197;-49
2022/11/20 09:31:07;;;;;;;2.60;2.50;;;9.50;99.90;;;;;;5026750;28;20282;-50
2022/11/20 09:33:35;;;;;;;3.83;2.57;;;9.40;99.90;;;;;;5020592;28;20216;-49
2022/11/20 09:36:02;;;;;;;2.10;2.00;;;9.20;99.90;;;;;;5025211;28;20344;-49
2022/11/20 09:38:29;;;;;;;2.80;2.60;;;9.40;99.90;;;;;;5022379;28;20208;-49
2022/11/20 09:40:59;;;;;;;5.77;3.00;;;9.60;99.90;;;;;;5018590;28;20231;-48
2022/11/20 09:43:38;;;;;;;3.53;2.77;;;9.70;99.90;;;;;;5019838;28;20764;-49
2022/11/20 09:46:15;;;;;;;3.20;3.00;;;9.70;99.90;;;;;;5026908;28;20271;-49
2022/11/20 09:49:14;;;;;;;3.30;2.80;;;9.80;99.90;;;;;;5025607;28;20644;-49
2022/11/20 09:51:45;;;;;;;3.27;3.03;;;9.90;99.90;;;;;;5020122;28;20270;-49
2022/11/20 09:54:18;;;;;;;3.33;1.57;;;9.80;99.90;;;;;;5019408;28;20268;-49
2022/11/20 09:56:49;;;;;;;1.93;1.83;;;9.60;99.90;;;;;;5018959;28;20279;-51
2022/11/20 09:59:34;;;;;;;1.83;1.73;;;9.50;99.90;;;;;;5021152;28;20207;-53
2022/11/20 10:02:13;;;;;;;2.30;2.10;;;9.40;99.90;;;;;;5021224;28;20250;-50
2022/11/20 10:04:48;;;;;;;2.83;1.80;;;9.20;99.90;;;;;;5020495;28;20706;-50
2022/11/20 10:07:22;;;;;;;1.63;1.53;;;9.10;99.90;;;;;;5020731;28;20693;-51
2022/11/20 10:09:53;;;;;;;2.40;2.20;;;9.20;99.90;;;;;;5017803;28;20731;-50
2022/11/20 10:12:27;;;;;;;2.37;2.10;;;9.00;99.90;;;;;;5019386;28;20230;-52
2022/11/20 10:15:06;;;;;;;1.87;1.77;;;9.00;99.90;;;;;;5015176;28;20281;-49
2022/11/20 10:17:49;;;;;;;3.43;1.63;;;9.00;99.90;;;;;;5019736;28;20212;-50
2022/11/20 10:20:20;;;;;;;1.50;1.20;;;9.00;99.90;;;;;;5019537;28;20275;-49
2022/11/20 10:23:08;;;;;;;1.80;1.70;;;9.00;99.90;;;;;;5019470;28;20238;-49
2022/11/20 10:25:40;;;;;;;1.50;1.40;;;9.00;99.90;;;;;;5019069;28;20295;-50
2022/11/20 10:28:25;;;;;;;1.43;1.33;;;9.00;99.90;;;;;;5020544;28;20197;-49
2022/11/20 10:30:58;;;;;;;1.80;1.70;;;9.00;99.90;;;;;;5018727;28;20197;-49
2022/11/20 10:33:30;;;;;;;2.17;0.90;;;8.90;99.90;;;;;;5019998;28;20669;-49
2022/11/20 10:36:03;;;;;;;3.30;0.80;;;9.00;99.90;;;;;;5021560;28;20204;-49
2022/11/20 10:38:35;;;;;;;0.70;0.70;;;8.90;99.90;;;;;;5030193;28;20211;-49
2022/11/20 10:43:47;;;;;;;1.63;0.87;;;8.80;99.90;;;;;;5023295;28;20243;-49
2022/11/20 10:46:19;;;;;;;3.33;0.70;;;8.80;99.90;;;;;;5028663;28;20211;-49
2022/11/20 10:48:49;;;;;;;1.80;0.60;;;8.80;99.90;;;;;;5031171;28;20236;-49
2022/11/20 10:51:36;;;;;;;1.40;0.87;;;8.80;99.90;;;;;;5023281;28;20257;-49
2022/11/20 10:54:19;;;;;;;0.97;0.97;;;8.80;99.90;;;;;;5023755;28;20308;-49
2022/11/20 10:56:49;;;;;;;1.40;0.70;;;8.80;99.90;;;;;;5028768;28;20202;-49
2022/11/20 10:59:39;;;;;;;1.87;1.47;;;8.80;99.90;;;;;;5029404;28;20208;-49
2022/11/20 11:02:17;;;;;;;1.43;1.27;;;8.80;99.90;;;;;;5022027;28;20638;-50
2022/11/20 11:04:48;;;;;;;1.23;1.03;;;8.80;99.90;;;;;;5027600;28;20202;-49
2022/11/20 11:07:20;;;;;;;1.43;1.07;;;8.80;99.90;;;;;;5018482;28;20233;-50
2022/11/20 11:09:51;;;;;;;1.33;1.20;;;8.80;99.90;;;;;;5017548;28;20255;-50
2022/11/20 11:12:19;;;;;;;2.33;0.67;;;8.80;99.90;;;;;;5025698;28;20224;-49
2022/11/20 11:14:48;;;;;;;1.63;0.80;;;9.00;99.90;;;;;;5018400;28;20209;-49
2022/11/20 11:17:26;;;;;;;0.80;0.80;;;9.00;99.90;;;;;;5024243;28;20233;-49
2022/11/20 11:20:09;;;;;;;1.10;1.00;;;9.20;99.90;;;;;;5027297;28;20342;-49
2022/11/20 11:22:45;;;;;;;1.37;1.27;;;9.40;99.90;;;;;;5023608;28;20339;-49
2022/11/20 11:25:24;;;;;;;2.40;1.23;;;9.50;99.90;;;;;;5022476;28;20269;-49
2022/11/20 11:27:54;;;;;;;1.27;1.00;;;9.70;99.90;;;;;;5023906;28;20334;-49
2022/11/20 11:30:23;;;;;;;2.00;0.90;;;9.80;99.90;;;;;;5026163;28;20803;-49
2022/11/20 11:32:50;;;;;;;3.00;1.10;;;10.00;99.90;;;;;;5024074;28;20224;-49
2022/11/20 11:35:24;;;;;;;1.47;0.93;;;10.10;99.90;;;;;;5024622;28;20229;-49
2022/11/20 11:37:54;;;;;;;0.93;0.60;;;10.20;99.90;;;;;;5024124;28;20198;-49
2022/11/20 11:40:23;;;;;;;0.70;0.50;;;10.10;99.90;;;;;;5031565;28;20658;-49
2022/11/20 11:42:55;;;;;;;0.70;0.70;;;10.00;99.90;;;;;;5027732;28;20216;-49
2022/11/20 11:45:22;;;;;;;0.83;0.77;;;9.90;99.90;;;;;;5022213;28;20207;-49
2022/11/20 11:47:52;;;;;;;1.47;1.37;;;9.80;99.90;;;;;;5022614;28;20566;-49
2022/11/20 11:50:23;;;;;;;0.60;0.60;;;9.80;99.90;;;;;;5031540;28;20194;-50
2022/11/20 11:52:59;;;;;;;0.57;0.57;;;9.80;99.90;;;;;;5017579;28;20642;-49
2022/11/20 11:55:35;;;;;;;0.97;0.40;;;9.80;99.90;;;;;;5027087;28;20942;-50
2022/11/20 11:58:15;;;;;;;1.60;0.50;;;9.80;99.90;;;;;;5024371;28;20207;-50
2022/11/20 12:00:52;;;;;;;1.33;0.57;;;9.80;99.90;;;;;;5025852;28;20635;-50
2022/11/20 12:03:24;;;;;;;0.83;0.50;;;9.90;99.90;;;;;;5026625;28;20225;-50
2022/11/20 12:05:58;;;;;;;1.10;0.60;;;10.00;99.90;;;;;;5030079;28;20262;-50
2022/11/20 12:08:32;;;;;;;0.90;0.80;;;10.00;99.90;;;;;;5031522;28;20204;-50
2022/11/20 12:11:06;;;;;;;0.47;0.47;;;10.00;99.90;;;;;;5030356;28;20196;-48
2022/11/20 12:13:45;;;;;;;0.93;0.70;;;10.00;99.90;;;;;;5031982;28;20261;-48
2022/11/20 12:16:14;;;;;;;0.70;0.60;;;10.00;99.90;;;;;;5026759;28;20224;-48
2022/11/20 12:18:42;;;;;;;2.00;1.10;;;10.00;99.90;;;;;;5020863;28;20201;-48
2022/11/20 12:21:21;;;;;;;0.50;0.50;;;9.90;99.90;;;;;;5029966;28;20720;-48
2022/11/20 12:24:03;;;;;;;0.97;0.50;;;10.00;99.90;;;;;;5021692;28;20225;-48
2022/11/20 12:26:44;;;;;;;1.00;0.60;;;10.10;99.90;;;;;;5018346;28;20449;-48
2022/11/20 12:29:20;;;;;;;0.60;0.60;;;10.20;99.90;;;;;;5025455;28;20275;-48
2022/11/20 12:32:03;;;;;;;0.93;0.50;;;10.30;99.90;;;;;;5025282;28;20726;-49
2022/11/20 12:34:48;;;;;;;0.50;0.50;;;10.20;99.90;;;;;;5022788;28;20234;-48
2022/11/20 12:37:34;;;;;;;0.60;0.60;;;10.30;99.90;;;;;;5026852;28;20278;-48
2022/11/20 12:40:14;;;;;;;0.57;0.57;;;10.30;99.90;;;;;;5015381;28;20256;-48
2022/11/20 12:46:14;;;;;;;0.67;0.60;;;10.30;99.90;;;;;;5016120;28;20692;-48
2022/11/20 12:49:18;;;;;;;0.73;0.50;;;10.40;99.90;;;;;;5026294;28;20208;-48
2022/11/20 12:52:01;;;;;;;0.87;0.70;;;10.50;99.90;;;;;;5024205;28;20247;-49
2022/11/20 12:54:53;;;;;;;0.60;0.60;;;10.50;99.90;;;;;;5024952;28;20220;-47
2022/11/20 12:57:25;;;;;;;0.70;0.70;;;10.60;99.90;;;;;;5028380;28;20206;-48
2022/11/20 13:00:08;;;;;;;0.57;0.57;;;10.70;99.90;;;;;;5019771;28;20204;-49
2022/11/20 13:02:44;;;;;;;1.33;0.50;;;10.70;99.90;;;;;;5027318;28;20326;-48
2022/11/20 13:05:25;;;;;;;0.87;0.87;;;10.70;99.90;;;;;;5029764;28;20200;-48
2022/11/20 13:07:54;;;;;;;0.30;0.30;;;10.70;99.90;;;;;;5029546;28;20720;-47
2022/11/20 13:10:34;;;;;;;0.30;0.30;;;10.80;99.90;;;;;;5024578;28;20620;-48
2022/11/20 13:13:06;;;;;;;1.10;0.47;;;10.80;99.90;;;;;;5017414;28;20725;-48
2022/11/20 13:15:51;;;;;;;0.87;0.70;;;10.70;99.90;;;;;;5022831;28;20266;-50
2022/11/20 13:18:19;;;;;;;0.90;0.90;;;10.70;99.90;;;;;;5017666;28;20263;-49
2022/11/20 13:20:48;;;;;;;1.97;0.77;;;10.70;99.90;;;;;;5022760;28;20225;-48